createdAt,value
2023-01-23T00:00:47.575Z,8.20
2023-01-23T00:03:13.938Z,7.85
2023-01-23T00:05:40.622Z,7.85
2023-01-23T00:08:07.114Z,10.48
2023-01-23T00:10:33.562Z,10.13
2023-01-23T00:13:00.001Z,6.50
2023-01-23T00:15:27.424Z,9.65
2023-01-23T00:17:54.052Z,13.88
2023-01-23T00:20:20.661Z,9.35
2023-01-23T00:22:47.215Z,10.05
2023-01-23T00:25:13.590Z,7.75
2023-01-23T00:27:39.988Z,12.85
2023-01-23T00:30:06.886Z,8.55
2023-01-23T00:32:33.240Z,7.07
2023-01-23T00:35:00.546Z,7.10
2023-01-23T00:37:27.001Z,9.77
2023-01-23T00:39:53.502Z,8.63
2023-01-23T00:42:20.073Z,6.78
2023-01-23T00:44:46.500Z,9.05
2023-01-23T00:47:12.953Z,12.43
2023-01-23T00:49:39.425Z,8.70
2023-01-23T00:52:05.862Z,12.27
2023-01-23T00:54:32.315Z,12.02
2023-01-23T00:56:58.723Z,8.90
2023-01-23T00:59:25.130Z,13.38
2023-01-23T01:01:51.550Z,9.48
2023-01-23T01:04:18.077Z,6.82
2023-01-23T01:06:44.523Z,8.25
2023-01-23T01:09:11.012Z,13.85
2023-01-23T01:11:37.560Z,9.05
2023-01-23T01:14:04.152Z,11.07
2023-01-23T01:16:30.809Z,8.55
2023-01-23T01:18:57.214Z,10.80
2023-01-23T01:21:24.217Z,7.88
2023-01-23T01:23:50.673Z,7.78
2023-01-23T01:26:18.288Z,8.02
2023-01-23T01:28:44.697Z,12.00
2023-01-23T01:31:13.852Z,9.73
2023-01-23T01:33:41.609Z,11.35
2023-01-23T01:36:10.208Z,9.35
2023-01-23T01:38:37.053Z,7.50
2023-01-23T01:41:04.012Z,10.15
2023-01-23T01:43:31.840Z,10.32
2023-01-23T01:46:18.017Z,10.70
2023-01-23T01:48:50.084Z,7.10
2023-01-23T01:51:19.626Z,11.05
2023-01-23T01:53:49.583Z,11.70
2023-01-23T01:56:18.356Z,9.40
2023-01-23T01:58:47.272Z,10.55
2023-01-23T02:01:13.828Z,13.77
2023-01-23T02:03:40.557Z,9.63
2023-01-23T02:06:07.782Z,11.45
2023-01-23T02:08:52.599Z,12.85
2023-01-23T02:11:19.106Z,8.52
2023-01-23T02:13:46.019Z,11.32
2023-01-23T02:16:19.663Z,13.07
2023-01-23T02:18:50.151Z,10.63
2023-01-23T02:21:25.254Z,11.45
2023-01-23T02:24:11.793Z,10.77
2023-01-23T02:26:41.711Z,12.88
2023-01-23T02:29:08.443Z,12.07
2023-01-23T02:31:35.270Z,10.30
2023-01-23T02:34:01.928Z,11.75
2023-01-23T02:36:31.515Z,12.80
2023-01-23T02:39:01.416Z,11.95
2023-01-23T02:41:31.145Z,12.73
2023-01-23T02:44:02.200Z,10.27
2023-01-23T02:46:28.855Z,15.38
2023-01-23T02:48:55.383Z,14.60
2023-01-23T02:51:22.651Z,26.48
2023-01-23T02:53:49.177Z,13.32
2023-01-23T02:56:16.075Z,11.23
2023-01-23T02:59:01.741Z,17.85
2023-01-23T03:01:29.546Z,19.33
2023-01-23T03:03:56.510Z,14.55
2023-01-23T03:06:23.954Z,17.45
2023-01-23T03:08:50.490Z,17.10
2023-01-23T03:11:19.149Z,17.58
2023-01-23T03:13:47.007Z,17.63
2023-01-23T03:16:13.659Z,16.13
2023-01-23T03:18:53.360Z,11.82
2023-01-23T03:21:20.703Z,15.13
2023-01-23T03:23:48.199Z,14.30
2023-01-23T03:26:15.374Z,14.30
2023-01-23T03:29:00.228Z,13.73
2023-01-23T03:31:26.692Z,15.32
2023-01-23T03:33:53.431Z,13.75
2023-01-23T03:36:19.930Z,16.90
2023-01-23T03:39:04.604Z,13.00
2023-01-23T03:41:31.158Z,12.23
2023-01-23T03:43:57.537Z,11.93
2023-01-23T03:46:24.068Z,13.63
2023-01-23T03:48:50.903Z,13.60
2023-01-23T03:51:17.343Z,18.15
2023-01-23T03:53:43.797Z,18.33
2023-01-23T03:56:10.294Z,17.35
2023-01-23T03:58:36.775Z,19.15
2023-01-23T04:01:07.279Z,16.08
2023-01-23T04:03:33.782Z,17.73
2023-01-23T04:06:00.596Z,16.42
2023-01-23T04:08:27.169Z,22.15
2023-01-23T04:11:01.975Z,14.27
2023-01-23T04:13:28.619Z,17.80
2023-01-23T04:15:55.009Z,19.27
2023-01-23T04:18:21.470Z,17.48
2023-01-23T04:20:47.999Z,20.92
2023-01-23T04:23:14.519Z,22.67
2023-01-23T04:25:40.935Z,14.88
2023-01-23T04:28:07.371Z,18.60
2023-01-23T04:30:33.890Z,12.30
2023-01-23T04:33:00.408Z,14.93
2023-01-23T04:35:26.959Z,13.07
2023-01-23T04:37:53.364Z,18.58
2023-01-23T04:40:20.241Z,14.80
2023-01-23T04:42:46.889Z,17.65
2023-01-23T04:45:13.492Z,13.85
2023-01-23T04:47:39.857Z,13.18
2023-01-23T04:50:06.549Z,15.27
2023-01-23T04:52:32.953Z,15.98
2023-01-23T04:54:59.361Z,15.18
2023-01-23T04:57:26.159Z,17.67
2023-01-23T04:59:52.585Z,18.42
2023-01-23T05:02:19.041Z,14.90
2023-01-23T05:04:45.480Z,15.15
2023-01-23T05:07:12.576Z,13.48
2023-01-23T05:09:40.184Z,14.00
2023-01-23T05:12:07.105Z,14.88
2023-01-23T05:14:33.675Z,13.57
2023-01-23T05:17:00.110Z,18.30
2023-01-23T05:19:26.583Z,16.55
2023-01-23T05:21:53.003Z,16.17
2023-01-23T05:24:19.444Z,19.25
2023-01-23T05:26:45.949Z,13.40
2023-01-23T05:29:12.493Z,12.80
2023-01-23T05:31:39.005Z,14.20
2023-01-23T05:34:05.436Z,17.10
2023-01-23T05:36:31.812Z,14.90
2023-01-23T05:38:58.270Z,15.35
2023-01-23T05:41:25.729Z,14.73
2023-01-23T05:43:52.212Z,15.88
2023-01-23T05:46:18.700Z,15.35
2023-01-23T05:48:48.831Z,14.07
2023-01-23T05:51:15.364Z,15.48
2023-01-23T05:53:41.814Z,16.88
2023-01-23T05:56:08.549Z,16.35
2023-01-23T05:58:35.018Z,16.70
2023-01-23T06:01:05.198Z,19.60
2023-01-23T06:03:32.023Z,14.43
2023-01-23T06:06:01.450Z,14.10
2023-01-23T06:08:28.090Z,18.02
2023-01-23T06:10:54.603Z,18.90
2023-01-23T06:13:20.986Z,14.70
2023-01-23T06:15:47.389Z,15.55
2023-01-23T06:18:13.964Z,14.65
2023-01-23T06:20:40.440Z,17.02
2023-01-23T06:23:06.849Z,21.13
2023-01-23T06:25:33.272Z,16.13
2023-01-23T06:27:59.792Z,16.23
2023-01-23T06:30:26.173Z,16.33
2023-01-23T06:32:52.574Z,15.90
2023-01-23T06:35:19.360Z,16.27
2023-01-23T06:37:45.910Z,17.30
2023-01-23T06:40:13.368Z,14.38
2023-01-23T06:42:41.041Z,14.30
2023-01-23T06:45:09.526Z,16.33
2023-01-23T06:47:36.657Z,17.40
2023-01-23T06:50:04.574Z,16.42
2023-01-23T06:52:31.049Z,13.90
2023-01-23T06:54:57.411Z,14.55
2023-01-23T06:57:23.907Z,13.02
2023-01-23T06:59:50.431Z,14.80
2023-01-23T07:02:16.850Z,15.15
2023-01-23T07:04:43.246Z,14.77
2023-01-23T07:07:09.606Z,14.95
2023-01-23T07:09:36.044Z,14.00
2023-01-23T07:12:02.460Z,16.75
2023-01-23T07:14:28.865Z,15.32
2023-01-23T07:16:55.643Z,15.18
2023-01-23T07:19:22.166Z,15.65
2023-01-23T07:21:49.036Z,16.33
2023-01-23T07:24:15.503Z,14.75
2023-01-23T07:26:41.925Z,22.75
2023-01-23T07:29:11.284Z,23.27
2023-01-23T07:31:37.802Z,17.65
2023-01-23T07:34:04.426Z,15.65
2023-01-23T07:36:31.050Z,19.25
2023-01-23T07:38:58.981Z,15.55
2023-01-23T07:41:25.757Z,18.08
2023-01-23T07:43:52.252Z,17.85
2023-01-23T07:46:18.739Z,19.17
2023-01-23T07:48:45.194Z,16.83
2023-01-23T07:51:12.056Z,22.30
2023-01-23T07:53:38.511Z,19.48
2023-01-23T07:56:06.122Z,20.00
2023-01-23T07:58:32.819Z,16.55
2023-01-23T08:00:59.459Z,19.58
2023-01-23T08:03:28.976Z,17.08
2023-01-23T08:05:55.586Z,21.27
2023-01-23T08:08:22.067Z,19.52
2023-01-23T08:10:48.507Z,19.08
2023-01-23T08:13:14.988Z,19.83
2023-01-23T08:15:41.664Z,17.50
2023-01-23T08:18:08.182Z,17.17
2023-01-23T08:20:34.649Z,21.67
2023-01-23T08:23:02.283Z,19.75
2023-01-23T08:25:29.171Z,18.98
2023-01-23T08:27:55.671Z,19.38
2023-01-23T08:30:22.500Z,19.52
2023-01-23T08:32:49.188Z,19.23
2023-01-23T08:35:16.453Z,21.35
2023-01-23T08:37:42.968Z,22.55
2023-01-23T08:40:10.287Z,20.98
2023-01-23T08:42:36.784Z,21.50
2023-01-23T08:45:03.627Z,18.80
2023-01-23T08:47:30.615Z,25.05
2023-01-23T08:49:57.036Z,22.20
2023-01-23T08:52:23.433Z,23.85
2023-01-23T08:54:49.880Z,19.27
2023-01-23T08:57:16.252Z,19.60
2023-01-23T08:59:44.291Z,21.30
2023-01-23T09:02:12.665Z,18.60
2023-01-23T09:04:39.413Z,21.02
2023-01-23T09:07:05.852Z,24.50
2023-01-23T09:09:32.278Z,17.60
2023-01-23T09:11:58.666Z,18.27
2023-01-23T09:14:25.053Z,21.67
2023-01-23T09:16:51.519Z,26.25
2023-01-23T09:19:17.946Z,19.33
2023-01-23T09:21:44.636Z,21.67
2023-01-23T09:24:11.073Z,25.80
2023-01-23T09:26:38.109Z,20.88
2023-01-23T09:29:04.545Z,16.75
2023-01-23T09:31:31.147Z,21.80
2023-01-23T09:33:57.756Z,23.42
2023-01-23T09:36:41.395Z,21.52
2023-01-23T09:39:08.772Z,20.63
2023-01-23T09:41:35.277Z,23.23
2023-01-23T09:44:40.350Z,24.73
2023-01-23T09:47:23.473Z,21.45
2023-01-23T09:50:14.936Z,26.90
2023-01-23T09:52:47.594Z,23.50
2023-01-23T09:55:22.241Z,23.05
2023-01-23T10:00:30.007Z,23.48
2023-01-23T10:02:56.982Z,24.30
2023-01-23T10:05:36.261Z,23.95
2023-01-23T10:08:20.611Z,21.63
2023-01-23T10:11:02.913Z,25.30
2023-01-23T10:13:54.796Z,22.70
2023-01-23T10:16:55.252Z,24.02
2023-01-23T10:19:42.932Z,26.60
2023-01-23T10:22:23.199Z,21.38
2023-01-23T10:24:50.963Z,28.70
2023-01-23T10:27:29.942Z,25.48
2023-01-23T10:30:14.431Z,23.20
2023-01-23T10:32:52.745Z,23.65
2023-01-23T10:35:26.325Z,22.50
2023-01-23T10:38:02.628Z,22.38
2023-01-23T10:40:47.510Z,23.20
2023-01-23T10:43:16.761Z,22.55
2023-01-23T10:45:44.831Z,25.02
2023-01-23T10:48:33.572Z,28.75
2023-01-23T10:51:00.647Z,30.58
2023-01-23T10:53:27.466Z,19.58
2023-01-23T10:55:58.192Z,25.63
2023-01-23T10:58:41.024Z,25.52
2023-01-23T11:01:26.122Z,24.52
2023-01-23T11:03:52.943Z,21.63
2023-01-23T11:06:22.404Z,20.52
2023-01-23T11:09:03.968Z,26.90
2023-01-23T11:11:32.330Z,19.67
2023-01-23T11:14:14.042Z,19.25
2023-01-23T11:16:40.576Z,24.38
2023-01-23T11:19:10.031Z,22.88
2023-01-23T11:21:52.771Z,18.73
2023-01-23T11:24:27.718Z,21.23
2023-01-23T11:27:17.633Z,20.27
2023-01-23T11:30:16.965Z,20.73
2023-01-23T11:33:08.043Z,21.75
2023-01-23T11:35:34.422Z,25.42
2023-01-23T11:38:03.855Z,22.17
2023-01-23T11:40:30.411Z,23.05
2023-01-23T11:42:56.991Z,22.98
2023-01-23T11:45:54.664Z,23.98
2023-01-23T11:48:40.812Z,26.08
2023-01-23T11:51:19.567Z,18.40
2023-01-23T11:54:18.451Z,21.98
2023-01-23T11:57:03.623Z,21.50
2023-01-23T11:59:42.149Z,21.17
2023-01-23T12:02:43.029Z,20.58
2023-01-23T12:05:33.030Z,21.17
2023-01-23T12:08:17.759Z,24.77
2023-01-23T12:10:59.323Z,21.73
2023-01-23T12:13:34.835Z,22.58
2023-01-23T12:16:16.516Z,19.15
2023-01-23T12:19:08.053Z,20.65
2023-01-23T12:21:46.644Z,20.15
2023-01-23T12:24:34.494Z,20.85
2023-01-23T12:27:05.004Z,25.05
2023-01-23T12:29:55.920Z,20.70
2023-01-23T12:33:00.119Z,21.70
2023-01-23T12:36:08.557Z,20.50
2023-01-23T12:39:03.289Z,21.33
2023-01-23T12:41:37.798Z,24.02
2023-01-23T12:44:14.083Z,18.83
2023-01-23T12:46:55.257Z,20.77
2023-01-23T12:49:38.852Z,23.05
2023-01-23T12:52:11.404Z,19.63
2023-01-23T12:54:45.098Z,23.42
2023-01-23T12:57:13.057Z,21.97
2023-01-23T13:00:00.251Z,19.88
2023-01-23T13:02:32.719Z,20.90
2023-01-23T13:05:15.987Z,19.23
2023-01-23T13:07:55.962Z,21.13
2023-01-23T13:11:19.929Z,21.60
2023-01-23T13:13:47.160Z,21.30
2023-01-23T13:16:16.646Z,22.00
2023-01-23T13:19:15.064Z,22.50
2023-01-23T13:22:04.711Z,20.63
2023-01-23T13:25:09.950Z,16.55
2023-01-23T13:27:47.294Z,22.02
2023-01-23T13:30:32.964Z,21.17
2023-01-23T13:33:01.751Z,21.63
2023-01-23T13:35:40.335Z,17.15
2023-01-23T13:38:22.138Z,20.88
2023-01-23T13:41:14.533Z,19.05
2023-01-23T13:43:49.896Z,20.75
2023-01-23T14:21:46.360Z,20.33
2023-01-23T14:24:23.445Z,18.23
2023-01-23T14:27:07.221Z,14.60
2023-01-23T14:29:34.750Z,17.02
2023-01-23T14:32:01.153Z,14.27
2023-01-23T14:34:27.668Z,16.35
2023-01-23T14:37:08.392Z,18.40
2023-01-23T14:39:36.242Z,12.77
2023-01-23T14:42:05.355Z,12.80
2023-01-23T14:47:16.670Z,13.52
2023-01-23T14:49:43.883Z,10.68
2023-01-23T14:52:23.462Z,10.52
2023-01-23T14:54:54.125Z,10.65
2023-01-23T14:57:23.853Z,11.57
2023-01-23T14:59:55.339Z,10.23
2023-01-23T15:02:31.419Z,8.35
2023-01-23T15:05:20.250Z,6.32
2023-01-23T15:08:15.674Z,7.88
2023-01-23T15:10:42.174Z,5.10
2023-01-23T15:13:13.906Z,6.13
2023-01-23T15:15:46.491Z,6.28
2023-01-23T15:18:27.572Z,7.30
2023-01-23T15:21:02.792Z,5.45
2023-01-23T15:23:31.695Z,5.97
2023-01-23T15:26:24.134Z,5.40
2023-01-23T15:28:52.812Z,4.68
2023-01-23T15:31:35.414Z,7.10
2023-01-23T15:34:13.867Z,6.18
2023-01-23T15:36:47.460Z,4.82
2023-01-23T15:39:20.976Z,4.50
2023-01-23T15:41:53.264Z,5.15
2023-01-23T15:44:22.264Z,5.82
2023-01-23T15:46:48.852Z,4.90
2023-01-23T15:49:24.779Z,4.70
2023-01-23T15:51:51.752Z,4.85
2023-01-23T15:54:26.648Z,6.20
2023-01-23T15:57:05.419Z,7.50
2023-01-23T15:59:36.280Z,19.20
2023-01-23T16:02:03.008Z,17.67
2023-01-23T16:04:29.417Z,9.43
2023-01-23T16:06:57.272Z,7.65
2023-01-23T16:09:30.860Z,6.85
2023-01-23T16:11:59.808Z,8.63
2023-01-23T16:14:26.351Z,6.00
2023-01-23T16:16:53.119Z,6.07
2023-01-23T16:19:19.645Z,6.15
2023-01-23T16:21:55.766Z,6.03
2023-01-23T16:24:27.060Z,7.43
2023-01-23T16:26:56.483Z,5.55
2023-01-23T16:29:32.088Z,5.75
2023-01-23T16:32:01.221Z,4.63
2023-01-23T16:34:28.442Z,5.30
2023-01-23T16:36:57.201Z,6.88
2023-01-23T16:39:27.112Z,6.30
2023-01-23T16:41:56.267Z,5.90
2023-01-23T16:44:26.162Z,6.53
2023-01-23T16:46:53.474Z,7.10
2023-01-23T16:49:20.744Z,6.03
2023-01-23T16:51:59.796Z,6.72
2023-01-23T16:54:26.552Z,6.10
2023-01-23T16:56:54.778Z,7.38
2023-01-23T16:59:35.609Z,5.85
2023-01-23T17:02:12.552Z,6.50
2023-01-23T17:04:39.071Z,7.78
2023-01-23T17:07:14.173Z,7.35
2023-01-23T17:09:40.538Z,6.95
2023-01-23T17:12:14.869Z,7.55
2023-01-23T17:14:43.633Z,7.22
2023-01-23T17:17:19.122Z,6.85
2023-01-23T17:19:45.821Z,7.18
2023-01-23T17:22:25.896Z,7.88
2023-01-23T17:24:52.459Z,8.00
2023-01-23T17:27:19.105Z,8.70
2023-01-23T17:29:45.662Z,6.53
2023-01-23T17:32:28.133Z,7.93
2023-01-23T17:34:54.938Z,6.55
2023-01-23T17:37:22.712Z,6.63
2023-01-23T17:39:49.234Z,6.05
2023-01-23T17:42:16.036Z,7.22
2023-01-23T17:44:42.470Z,11.52
2023-01-23T17:47:12.604Z,12.57
2023-01-23T17:49:39.949Z,7.70
2023-01-23T17:52:06.623Z,6.45
2023-01-23T17:54:33.179Z,6.72
2023-01-23T17:56:59.881Z,6.38
2023-01-23T17:59:26.568Z,6.82
2023-01-23T18:01:53.152Z,7.18
2023-01-23T18:04:22.155Z,6.30
2023-01-23T18:06:49.955Z,7.72
2023-01-23T18:09:17.068Z,6.38
2023-01-23T18:11:52.369Z,6.63
2023-01-23T18:14:24.737Z,6.22
2023-01-23T18:16:51.617Z,9.88
2023-01-23T18:19:20.760Z,9.18
2023-01-23T18:21:49.824Z,6.93
2023-01-23T18:24:30.261Z,5.82
2023-01-23T18:27:14.950Z,7.25
2023-01-23T18:30:21.190Z,5.80
2023-01-23T18:33:21.555Z,6.88
2023-01-23T18:36:25.689Z,6.85
2023-01-23T18:39:16.895Z,7.57
2023-01-23T18:42:13.384Z,6.78
2023-01-23T18:44:45.308Z,8.63
2023-01-23T18:47:14.615Z,8.43
2023-01-23T18:49:41.467Z,8.95
2023-01-23T18:52:12.757Z,6.75
2023-01-23T18:54:50.667Z,7.45
2023-01-23T18:57:32.496Z,7.57
2023-01-23T19:00:34.295Z,6.85
2023-01-23T19:03:10.679Z,8.15
2023-01-23T19:05:37.313Z,7.82
2023-01-23T19:08:03.915Z,7.88
2023-01-23T19:10:47.689Z,8.48
2023-01-23T19:15:56.672Z,12.18
2023-01-23T19:18:46.221Z,10.00
2023-01-23T19:21:23.549Z,8.27
2023-01-23T19:24:16.745Z,10.50
2023-01-23T19:26:43.426Z,10.52
2023-01-23T19:29:21.596Z,8.45
2023-01-23T19:32:03.637Z,7.90
2023-01-23T19:34:31.804Z,8.82
2023-01-23T19:36:58.217Z,9.20
2023-01-23T19:39:24.584Z,8.85
2023-01-23T19:41:51.874Z,7.43
2023-01-23T19:44:20.743Z,11.40
2023-01-23T19:46:47.625Z,12.73
2023-01-23T19:49:14.184Z,11.30
2023-01-23T19:51:41.415Z,11.57
2023-01-23T19:54:12.407Z,11.23
2023-01-23T19:56:39.810Z,9.20
2023-01-23T19:59:07.087Z,8.07
2023-01-23T20:01:37.036Z,8.05
2023-01-23T20:04:04.710Z,9.68
2023-01-23T20:06:33.046Z,8.52
2023-01-23T20:08:59.838Z,7.22
2023-01-23T20:11:26.488Z,9.73
2023-01-23T20:13:52.884Z,10.15
2023-01-23T20:16:22.073Z,9.07
2023-01-23T20:18:49.464Z,9.30
2023-01-23T20:21:17.576Z,8.07
2023-01-23T20:23:44.860Z,8.65
2023-01-23T20:26:11.613Z,8.40
2023-01-23T20:28:38.211Z,12.85
2023-01-23T20:31:06.426Z,11.38
2023-01-23T20:33:33.578Z,12.27
2023-01-23T20:36:00.099Z,11.77
2023-01-23T20:38:26.560Z,16.73
2023-01-23T20:40:52.977Z,11.07
2023-01-23T20:43:19.447Z,12.63
2023-01-23T20:45:47.349Z,11.43
2023-01-23T20:48:14.070Z,11.60
2023-01-23T20:50:40.913Z,8.68
2023-01-23T20:53:25.714Z,11.00
2023-01-23T20:55:53.517Z,9.75
2023-01-23T20:58:38.635Z,11.35
2023-01-23T21:01:05.234Z,10.77
2023-01-23T21:03:31.646Z,9.18
2023-01-23T21:05:58.091Z,8.93
2023-01-23T21:08:24.508Z,10.13
2023-01-23T21:10:52.502Z,13.50
2023-01-23T21:13:20.309Z,12.50
2023-01-23T21:15:58.096Z,13.77
2023-01-23T21:18:24.738Z,15.68
2023-01-23T21:20:51.263Z,16.88
2023-01-23T21:23:17.987Z,13.32
2023-01-23T21:25:44.492Z,15.27
2023-01-23T21:28:11.082Z,13.15
2023-01-23T21:30:38.637Z,14.13
2023-01-23T21:33:06.201Z,14.40
2023-01-23T21:35:32.899Z,16.40
2023-01-23T21:38:00.061Z,15.80
2023-01-23T21:40:26.578Z,14.85
2023-01-23T21:42:52.936Z,16.20
2023-01-23T21:45:19.748Z,14.85
2023-01-23T21:47:46.303Z,15.15
2023-01-23T21:50:12.742Z,14.80
2023-01-23T21:52:39.153Z,15.32
2023-01-23T21:55:05.985Z,16.55
2023-01-23T21:57:32.505Z,16.38
2023-01-23T22:00:19.129Z,13.73
2023-01-23T22:02:45.611Z,14.65
2023-01-23T22:05:12.133Z,18.40
2023-01-23T22:07:38.716Z,16.13
2023-01-23T22:10:05.661Z,17.17
2023-01-23T22:12:32.071Z,17.48
2023-01-23T22:14:58.504Z,13.90
2023-01-23T22:17:24.917Z,16.25
2023-01-23T22:19:51.363Z,17.55
2023-01-23T22:22:19.013Z,15.98
2023-01-23T22:24:45.371Z,18.63
2023-01-23T22:27:11.798Z,19.08
2023-01-23T22:29:38.268Z,18.50
2023-01-23T22:32:05.027Z,13.27
2023-01-23T22:34:31.518Z,19.35
2023-01-23T22:36:57.951Z,18.30
2023-01-23T22:39:24.375Z,15.07
2023-01-23T22:41:50.766Z,14.82
2023-01-23T22:44:17.611Z,17.90
2023-01-23T22:46:44.179Z,16.35
2023-01-23T22:49:10.660Z,17.20
2023-01-23T22:51:37.354Z,16.73
2023-01-23T22:54:05.943Z,16.65
2023-01-23T22:56:32.330Z,18.42
2023-01-23T22:59:01.117Z,18.38
2023-01-23T23:01:28.081Z,17.33
2023-01-23T23:03:57.693Z,19.90
2023-01-23T23:06:24.319Z,18.83
2023-01-23T23:08:50.807Z,17.77
2023-01-23T23:11:22.833Z,20.35
2023-01-23T23:13:49.884Z,18.90
2023-01-23T23:16:28.389Z,19.42
2023-01-23T23:18:56.074Z,17.80
2023-01-23T23:21:28.201Z,18.70
2023-01-23T23:23:59.888Z,20.08
2023-01-23T23:26:27.763Z,20.58
2023-01-23T23:28:55.085Z,19.08
2023-01-23T23:31:21.728Z,17.40
2023-01-23T23:33:48.161Z,19.38
2023-01-23T23:36:14.629Z,19.15
2023-01-23T23:38:41.044Z,23.90
2023-01-23T23:41:11.395Z,18.88
2023-01-23T23:43:37.955Z,17.38
2023-01-23T23:46:07.078Z,17.73
2023-01-23T23:48:35.307Z,20.17
2023-01-23T23:51:05.100Z,22.25
2023-01-23T23:53:31.717Z,21.70
2023-01-23T23:56:18.766Z,21.17
2023-01-23T23:58:45.197Z,22.95
